Ocean Spirit of Moray — MVXF5 — position and weather

sailwx.info

Track history (hours):
 
Tides and Currents Weather Stations Pressure Air Temp Water Temp Dewpoint Dewpoint Depression Visibility Wind Speed Wind Dir Waves Ship Positions

Ocean Spirit of Moray (United Kingdom)

Ship's website: http://www.gordonstoun.org.uk/

Last reported at 2019-Apr-25 10:51 UTC. Time now 2019-Apr-25 15:56 UTC.
Position N 57°17' W 005°44'.

Length 24 m; draft 3 m.

Type: Sailing vessel. MMSI: 232007590.

Date/timePositionNaut miles runAvg speedWind from/ knotsBaromVisibWave heightAir tempDewpointWater temp
2019-Apr-25 10:51N 57°17' W 005°44'3 5.8
2019-Apr-25 10:24N 57°19' W 005°44'3 0.1
2019-Apr-24 09:47N 57°21' W 005°38'3 0.1
2019-Apr-23 09:37N 57°21' W 005°44'1 3.5
2019-Apr-23 09:26N 57°20' W 005°44'2 5.1
2019-Apr-23 09:00N 57°18' W 005°45'2 3.3
2019-Apr-23 08:29N 57°17' W 005°44'3 5.2
2019-Apr-23 08:00N 57°16' W 005°49'3 6.0
2019-Apr-23 07:28N 57°15' W 005°54'0 0.0
2019-Apr-23 06:58N 57°15' W 005°54'0 0.0
2019-Apr-23 06:28N 57°15' W 005°54'0 0.0
2019-Apr-23 05:58N 57°15' W 005°54'0 0.0
2019-Apr-23 05:29N 57°15' W 005°54'0 0.0
2019-Apr-23 04:56N 57°15' W 005°54'0 0.0
2019-Apr-23 04:28N 57°15' W 005°54'0 0.0
2019-Apr-23 03:55N 57°15' W 005°54'0 0.0
2019-Apr-23 03:28N 57°15' W 005°54'0 0.0
2019-Apr-23 02:58N 57°15' W 005°54'0 0.0
2019-Apr-23 02:28N 57°15' W 005°54'0 0.0
2019-Apr-23 01:59N 57°15' W 005°54'0 0.0
2019-Apr-23 01:28N 57°15' W 005°54'0 0.0
2019-Apr-23 00:58N 57°15' W 005°54'0 0.0
2019-Apr-23 00:28N 57°15' W 005°54'0 0.0
2019-Apr-22 23:58N 57°15' W 005°54'0 0.0
2019-Apr-22 23:28N 57°15' W 005°54'0 0.0
2019-Apr-22 22:59N 57°15' W 005°54'0 0.0
2019-Apr-22 22:25N 57°15' W 005°54'0 0.0
2019-Apr-22 21:52N 57°15' W 005°54'0 0.0
2019-Apr-22 21:25N 57°15' W 005°54'0 0.0
2019-Apr-22 20:58N 57°15' W 005°54'0 0.0
2019-Apr-22 20:28N 57°15' W 005°54'0 0.0
2019-Apr-22 19:58N 57°15' W 005°54'0 0.0
2019-Apr-22 19:28N 57°15' W 005°54'0 0.0
2019-Apr-22 18:58N 57°15' W 005°54'0 0.0
2019-Apr-22 18:28N 57°15' W 005°54'0 0.0
2019-Apr-22 17:56N 57°15' W 005°54'1 3.3
2019-Apr-22 17:30N 57°16' W 005°54'5 0.7
2019-Apr-22 10:34N 57°21' W 005°53'0 7.8
2019-Apr-22 10:30N 57°20' W 005°52'4 8.2
2019-Apr-22 10:00N 57°20' W 005°45'4 3.1
2019-Apr-22 08:40N 57°23' W 005°39'0 0.0
2019-Apr-22 02:54N 57°23' W 005°39'0 0.0
2019-Apr-21 22:54N 57°23' W 005°39'0 0.0
2019-Apr-21 20:21N 57°23' W 005°39'2 0.5
2019-Apr-21 16:46N 57°21' W 005°41'1 0.0
2019-Apr-20 01:05N 57°21' W 005°38'3 0.4
2019-Apr-19 16:01N 57°21' W 005°44'0 9.2
2019-Apr-19 16:00N 57°20' W 005°45'4 8.4
2019-Apr-19 15:29N 57°20' W 005°53'3 3.5
2019-Apr-19 14:43N 57°22' W 005°52'120 3.4
2019-Apr-18 03:51N 59°02' W 003°46'3 8.2
2019-Apr-18 03:30N 59°04' W 003°41'4 7.8
2019-Apr-18 02:59N 59°06' W 003°34'22 8.7
2019-Apr-18 00:28N 59°11' W 002°53'  
Track history (hours):
 
Tides and Currents Weather Stations Pressure Air Temp Water Temp Dewpoint Dewpoint Depression Visibility Wind Speed Wind Dir Waves Ship Positions

Ocean Spirit of Moray (United Kingdom)

Ship's website: http://www.gordonstoun.org.uk/

Last reported at 2019-Apr-25 10:51 UTC. Time now 2019-Apr-25 15:56 UTC.
Position N 57°17' W 005°44'.

Length 24 m; draft 3 m.

Type: Sailing vessel. MMSI: 232007590.

Date/timePositionNaut miles runAvg speedWind from/ knotsBaromVisibWave heightAir tempDewpointWater temp
2019-Apr-25 10:51N 57°17' W 005°44'3 5.8
2019-Apr-25 10:24N 57°19' W 005°44'3 0.1
2019-Apr-24 09:47N 57°21' W 005°38'3 0.1
2019-Apr-23 09:37N 57°21' W 005°44'1 3.5
2019-Apr-23 09:26N 57°20' W 005°44'2 5.1
2019-Apr-23 09:00N 57°18' W 005°45'2 3.3
2019-Apr-23 08:29N 57°17' W 005°44'3 5.2
2019-Apr-23 08:00N 57°16' W 005°49'3 6.0
2019-Apr-23 07:28N 57°15' W 005°54'0 0.0
2019-Apr-23 06:58N 57°15' W 005°54'0 0.0
2019-Apr-23 06:28N 57°15' W 005°54'0 0.0
2019-Apr-23 05:58N 57°15' W 005°54'0 0.0
2019-Apr-23 05:29N 57°15' W 005°54'0 0.0
2019-Apr-23 04:56N 57°15' W 005°54'0 0.0
2019-Apr-23 04:28N 57°15' W 005°54'0 0.0
2019-Apr-23 03:55N 57°15' W 005°54'0 0.0
2019-Apr-23 03:28N 57°15' W 005°54'0 0.0
2019-Apr-23 02:58N 57°15' W 005°54'0 0.0
2019-Apr-23 02:28N 57°15' W 005°54'0 0.0
2019-Apr-23 01:59N 57°15' W 005°54'0 0.0
2019-Apr-23 01:28N 57°15' W 005°54'0 0.0
2019-Apr-23 00:58N 57°15' W 005°54'0 0.0
2019-Apr-23 00:28N 57°15' W 005°54'0 0.0
2019-Apr-22 23:58N 57°15' W 005°54'0 0.0
2019-Apr-22 23:28N 57°15' W 005°54'0 0.0
2019-Apr-22 22:59N 57°15' W 005°54'0 0.0
2019-Apr-22 22:25N 57°15' W 005°54'0 0.0
2019-Apr-22 21:52N 57°15' W 005°54'0 0.0
2019-Apr-22 21:25N 57°15' W 005°54'0 0.0
2019-Apr-22 20:58N 57°15' W 005°54'0 0.0
2019-Apr-22 20:28N 57°15' W 005°54'0 0.0
2019-Apr-22 19:58N 57°15' W 005°54'0 0.0
2019-Apr-22 19:28N 57°15' W 005°54'0 0.0
2019-Apr-22 18:58N 57°15' W 005°54'0 0.0
2019-Apr-22 18:28N 57°15' W 005°54'0 0.0
2019-Apr-22 17:56N 57°15' W 005°54'1 3.3
2019-Apr-22 17:30N 57°16' W 005°54'5 0.7
2019-Apr-22 10:34N 57°21' W 005°53'0 7.8
2019-Apr-22 10:30N 57°20' W 005°52'4 8.2
2019-Apr-22 10:00N 57°20' W 005°45'4 3.1
2019-Apr-22 08:40N 57°23' W 005°39'0 0.0
2019-Apr-22 02:54N 57°23' W 005°39'0 0.0
2019-Apr-21 22:54N 57°23' W 005°39'0 0.0
2019-Apr-21 20:21N 57°23' W 005°39'2 0.5
2019-Apr-21 16:46N 57°21' W 005°41'1 0.0
2019-Apr-20 01:05N 57°21' W 005°38'3 0.4
2019-Apr-19 16:01N 57°21' W 005°44'0 9.2
2019-Apr-19 16:00N 57°20' W 005°45'4 8.4
2019-Apr-19 15:29N 57°20' W 005°53'3 3.5
2019-Apr-19 14:43N 57°22' W 005°52'120 3.4
2019-Apr-18 03:51N 59°02' W 003°46'3 8.2
2019-Apr-18 03:30N 59°04' W 003°41'4 7.8
2019-Apr-18 02:59N 59°06' W 003°34'22 8.7
2019-Apr-18 00:28N 59°11' W 002°53'  

Dump ship's entire track history